Terminal Aerodrome Forecast
Issued by NWS

Home | Current Version | Previous Version | Text Only | Print | Product List | Glossary On
Versions: 1 2 3 4 5 6 7 8 9 10 11 12 13 14 15 16 17 18 19
000
FTUS41 KOKX 270500
TAFSWF
TAF
KSWF 270523Z 2706/2812 VRB03KT P6SM BKN025
     FM271100 35004KT P6SM SCT030 BKN050
     FM271800 32009KT P6SM SCT025 SCT040
     FM272300 33008KT P6SM SCT040
     FM280100 34005KT P6SM SKC
     FM280500 VRB03KT P6SM SKC
      AMD NOT SKED=

USA.gov is the U.S. government's official web portal to all federal, state and local government web resources and services.